Time;durP1;ratioP1;P1;durP2;ratioP2;P2;SDS_P1;SDS_P2;PMS_P1;PMS_P2;Temp;Humidity;BMP_temperature;BMP_pressure;BME280_temperature;BME280_humidity;BME280_pressure;Samples;Min_cycle;Max_cycle;Signal;HPM_P1;HPM_P2
2022/05/30 00:03:01;;;;;;;1.50;1.13;;;21.10;37.90;;;;;;8291068;28;20061;-40
2022/05/30 00:07:01;;;;;;;1.40;1.20;;;21.10;37.90;;;;;;8290230;28;20057;-40
2022/05/30 00:11:07;;;;;;;1.07;0.97;;;21.10;37.90;;;;;;8291306;28;20034;-40
2022/05/30 00:15:14;;;;;;;1.00;1.00;;;21.10;37.90;;;;;;8296401;28;20088;-40
2022/05/30 00:19:15;;;;;;;1.17;1.05;;;21.10;37.90;;;;;;8297625;28;20503;-40
2022/05/30 00:23:15;;;;;;;1.20;1.10;;;21.10;37.90;;;;;;8297022;28;20041;-40
2022/05/30 00:27:16;;;;;;;1.10;1.00;;;21.10;37.90;;;;;;8296608;28;20038;-40
2022/05/30 00:31:18;;;;;;;1.50;1.27;;;21.10;37.90;;;;;;8296795;28;20046;-40
2022/05/30 00:35:18;;;;;;;1.58;1.00;;;21.00;37.90;;;;;;8296598;28;20054;-40
2022/05/30 00:39:19;;;;;;;1.23;1.00;;;21.00;37.90;;;;;;8296010;28;20495;-40
2022/05/30 00:43:49;;;;;;;1.03;0.97;;;21.00;37.90;;;;;;8296515;28;20038;-40
2022/05/30 00:47:52;;;;;;;1.40;1.10;;;21.00;37.90;;;;;;8283987;28;20046;-40
2022/05/30 00:51:55;;;;;;;2.28;1.05;;;21.00;37.90;;;;;;8295571;28;20034;-40
2022/05/30 00:55:57;;;;;;;1.27;1.10;;;21.00;37.90;;;;;;8295839;28;20293;-40
2022/05/30 01:00:19;;;;;;;1.75;1.30;;;21.00;37.90;;;;;;8295796;28;20456;-40
2022/05/30 01:08:40;;;;;;;1.30;1.10;;;21.00;38.00;;;;;;8295768;28;20041;-41
2022/05/30 01:12:49;;;;;;;;;;;21.00;38.00;;;;;;8295561;28;20053;-40
2022/05/30 01:16:50;;;;;;;2.63;1.30;;;20.90;37.90;;;;;;8295615;28;19930;-41
2022/05/30 01:21:32;;;;;;;1.20;1.00;;;20.90;38.00;;;;;;8295069;28;20041;-41
2022/05/30 01:25:54;;;;;;;1.02;0.93;;;20.90;38.00;;;;;;8273498;28;20355;-41
2022/05/30 01:30:00;;;;;;;1.88;1.27;;;20.90;38.00;;;;;;8294947;28;20069;-39
2022/05/30 01:34:01;;;;;;;1.30;1.02;;;20.90;38.00;;;;;;8294188;28;20060;-39
2022/05/30 01:38:02;;;;;;;1.15;0.82;;;20.90;38.00;;;;;;8294758;28;20395;-41
2022/05/30 01:42:03;;;;;;;2.00;1.33;;;20.90;38.00;;;;;;8294720;28;20030;-40
2022/05/30 01:46:09;;;;;;;1.35;1.25;;;20.90;38.00;;;;;;8293988;28;20053;-40
2022/05/30 01:50:10;;;;;;;1.30;1.20;;;20.90;38.00;;;;;;8294328;28;20060;-40
2022/05/30 01:54:11;;;;;;;1.70;1.17;;;20.90;38.00;;;;;;8293621;28;20046;-40
2022/05/30 01:58:11;;;;;;;0.90;0.90;;;20.90;38.00;;;;;;8294246;28;20727;-40
2022/05/30 02:02:12;;;;;;;1.07;1.00;;;20.80;38.00;;;;;;8294571;28;20042;-40
2022/05/30 02:06:12;;;;;;;1.20;1.00;;;20.90;38.00;;;;;;8293130;28;20038;-41
2022/05/30 02:10:13;;;;;;;1.20;1.10;;;20.90;38.00;;;;;;8293828;28;20034;-41
2022/05/30 02:14:14;;;;;;;1.40;1.10;;;20.80;38.00;;;;;;8293752;28;20050;-41
2022/05/30 02:18:16;;;;;;;1.40;1.20;;;20.80;38.00;;;;;;8293411;28;20352;-41
2022/05/30 02:22:20;;;;;;;1.10;1.00;;;20.80;38.00;;;;;;8293340;28;20087;-41
2022/05/30 02:26:21;;;;;;;0.80;0.80;;;20.80;38.00;;;;;;8293024;28;20037;-40
2022/05/30 02:30:21;;;;;;;2.93;1.00;;;20.80;38.00;;;;;;8292711;28;20069;-41
2022/05/30 02:38:41;;;;;;;1.13;0.90;;;20.70;38.00;;;;;;8293113;28;20120;-40
2022/05/30 02:42:42;;;;;;;0.90;0.80;;;20.70;38.00;;;;;;8292030;28;20557;-41
2022/05/30 02:46:43;;;;;;;0.95;0.88;;;20.70;38.00;;;;;;8293079;28;20133;-40
2022/05/30 02:50:45;;;;;;;1.10;1.00;;;20.70;38.00;;;;;;8292231;28;20111;-40
2022/05/30 02:54:45;;;;;;;1.30;1.00;;;20.70;38.00;;;;;;8291924;28;20049;-40
2022/05/30 02:58:46;;;;;;;0.93;0.93;;;20.70;38.00;;;;;;8292849;28;20467;-40
2022/05/30 03:02:47;;;;;;;0.85;0.85;;;20.70;38.00;;;;;;8292388;28;20038;-40
2022/05/30 03:06:48;;;;;;;1.53;0.80;;;20.60;38.00;;;;;;8291556;28;20545;-40
2022/05/30 03:10:48;;;;;;;0.93;0.90;;;20.60;38.00;;;;;;8292218;28;20125;-40
2022/05/30 03:14:50;;;;;;;0.93;0.90;;;20.60;38.00;;;;;;8291549;28;20042;-40
2022/05/30 03:18:50;;;;;;;2.22;1.15;;;20.60;38.00;;;;;;8291603;28;20495;-40
2022/05/30 03:22:51;;;;;;;1.53;1.43;;;20.60;38.50;;;;;;8291936;28;20053;-40
2022/05/30 03:26:52;;;;;;;1.00;0.90;;;20.60;38.00;;;;;;8291641;28;20410;-40
2022/05/30 03:30:52;;;;;;;2.10;1.10;;;20.60;38.00;;;;;;8290818;28;20439;-41
2022/05/30 03:34:53;;;;;;;1.90;1.10;;;20.60;38.00;;;;;;8291688;28;20121;-40
2022/05/30 03:38:54;;;;;;;1.17;1.07;;;20.60;38.00;;;;;;8291480;28;20033;-40
2022/05/30 03:42:55;;;;;;;0.95;0.85;;;20.50;37.90;;;;;;8290709;28;20088;-41
2022/05/30 03:46:55;;;;;;;1.25;1.05;;;20.50;37.90;;;;;;8290903;28;20058;-40
2022/05/30 03:50:57;;;;;;;1.10;1.00;;;20.50;37.90;;;;;;8291108;28;20121;-40
2022/05/30 03:54:57;;;;;;;1.13;1.00;;;20.50;37.90;;;;;;8290426;28;20058;-41
2022/05/30 03:58:58;;;;;;;1.43;0.87;;;20.50;37.90;;;;;;8291369;28;20041;-41
2022/05/30 04:03:00;;;;;;;0.90;0.90;;;20.50;37.90;;;;;;8290729;28;20053;-41
2022/05/30 04:07:00;;;;;;;1.58;1.17;;;20.50;37.90;;;;;;8290407;28;20053;-40
2022/05/30 04:11:01;;;;;;;1.00;0.90;;;20.50;38.00;;;;;;8291163;28;20499;-41
2022/05/30 04:15:03;;;;;;;0.80;0.80;;;20.50;38.00;;;;;;8290871;28;20042;-41
2022/05/30 04:19:04;;;;;;;1.20;1.10;;;20.60;38.20;;;;;;8290705;28;20588;-41
2022/05/30 04:23:04;;;;;;;1.40;0.97;;;20.60;38.10;;;;;;8290596;28;20053;-41
2022/05/30 04:27:05;;;;;;;0.77;0.70;;;20.70;38.00;;;;;;8290098;28;20410;-40
2022/05/30 04:31:13;;;;;;;1.02;0.93;;;20.70;38.00;;;;;;8290436;28;20487;-41
2022/05/30 04:35:15;;;;;;;1.00;0.80;;;20.80;38.00;;;;;;8290676;28;20435;-41
2022/05/30 04:39:15;;;;;;;1.38;1.00;;;20.90;37.90;;;;;;8290097;28;20450;-40
2022/05/30 04:43:16;;;;;;;1.23;0.80;;;20.90;37.80;;;;;;8290596;28;20041;-40
2022/05/30 04:47:17;;;;;;;1.43;1.03;;;20.90;37.70;;;;;;8290559;28;20066;-41
2022/05/30 04:51:17;;;;;;;0.80;0.75;;;20.90;37.70;;;;;;8289628;28;20030;-40
2022/05/30 04:55:18;;;;;;;0.80;0.80;;;21.00;37.70;;;;;;8290072;28;20060;-40
2022/05/30 04:59:19;;;;;;;0.90;0.90;;;21.00;37.60;;;;;;8292931;28;20034;-40
2022/05/30 05:03:19;;;;;;;1.23;0.90;;;21.00;37.60;;;;;;8295171;28;20040;-41
2022/05/30 05:07:19;;;;;;;1.10;1.00;;;20.90;37.60;;;;;;8296091;28;20052;-40
2022/05/30 05:11:26;;;;;;;0.93;0.80;;;21.00;37.60;;;;;;8295467;28;20061;-40
2022/05/30 05:15:27;;;;;;;0.88;0.88;;;20.90;37.50;;;;;;8294767;28;20065;-40
2022/05/30 05:19:28;;;;;;;1.50;0.80;;;21.00;37.60;;;;;;8295323;28;20046;-40
2022/05/30 05:23:29;;;;;;;1.48;0.82;;;21.00;37.40;;;;;;8295397;28;20460;-40
2022/05/30 05:27:29;;;;;;;1.55;1.10;;;21.10;37.20;;;;;;8294529;28;20088;-40
2022/05/30 05:31:34;;;;;;;0.93;0.80;;;21.10;37.10;;;;;;8294963;28;20124;-40
2022/05/30 05:35:35;;;;;;;1.42;1.15;;;21.10;37.20;;;;;;8295012;28;20056;-40
2022/05/30 05:39:35;;;;;;;0.80;0.80;;;21.10;37.30;;;;;;8294485;28;20479;-40
2022/05/30 05:43:36;;;;;;;1.20;1.10;;;21.00;37.20;;;;;;8294220;28;20045;-40
2022/05/30 05:47:36;;;;;;;1.30;0.90;;;21.00;37.30;;;;;;8294835;28;20030;-40
2022/05/30 05:51:39;;;;;;;1.97;1.10;;;21.00;37.40;;;;;;8293712;28;20058;-40
2022/05/30 05:55:39;;;;;;;4.35;0.80;;;20.90;37.40;;;;;;8294138;28;20407;-40
2022/05/30 05:59:40;;;;;;;0.97;0.87;;;20.90;37.40;;;;;;8294486;28;20034;-40
2022/05/30 06:03:41;;;;;;;1.33;1.23;;;20.80;37.40;;;;;;8293416;28;20054;-40
2022/05/30 06:07:43;;;;;;;1.17;1.00;;;20.80;37.40;;;;;;8294042;28;20121;-40
2022/05/30 06:11:44;;;;;;;0.80;0.80;;;20.90;37.50;;;;;;8293301;28;20034;-40
2022/05/30 06:15:44;;;;;;;0.83;0.83;;;20.80;37.50;;;;;;8292862;28;20054;-39
2022/05/30 06:19:48;;;;;;;0.93;0.93;;;20.80;37.60;;;;;;8293679;28;20038;-40
2022/05/30 06:23:49;;;;;;;1.20;1.10;;;20.80;37.60;;;;;;8293360;28;20044;-40
2022/05/30 06:27:50;;;;;;;0.80;0.80;;;20.90;37.60;;;;;;8292843;28;20061;-39
2022/05/30 06:31:50;;;;;;;2.13;0.83;;;20.90;37.50;;;;;;8293253;28;20120;-39
2022/05/30 06:35:51;;;;;;;0.73;0.70;;;20.90;37.50;;;;;;8292928;28;20598;-39
2022/05/30 06:39:52;;;;;;;1.53;1.00;;;21.00;37.50;;;;;;8292725;28;20037;-39
2022/05/30 06:43:56;;;;;;;1.25;1.08;;;21.00;37.50;;;;;;8292973;28;20125;-39
2022/05/30 06:47:56;;;;;;;1.23;0.90;;;21.00;37.50;;;;;;8292362;28;20069;-39
2022/05/30 06:51:57;;;;;;;2.07;1.03;;;21.10;37.50;;;;;;8292176;28;20123;-39
2022/05/30 06:55:58;;;;;;;2.05;1.00;;;21.10;37.40;;;;;;8292523;28;20076;-40
2022/05/30 06:59:59;;;;;;;0.80;0.80;;;21.10;37.40;;;;;;8292452;28;20034;-40
2022/05/30 07:04:00;;;;;;;1.20;1.10;;;21.10;37.30;;;;;;8291598;28;20030;-40
2022/05/30 07:08:00;;;;;;;1.67;1.13;;;21.10;37.30;;;;;;8292195;28;20466;-41
2022/05/30 07:12:01;;;;;;;1.43;1.33;;;21.10;37.30;;;;;;8291982;28;20041;-41
2022/05/30 07:16:02;;;;;;;2.60;1.60;;;21.10;37.30;;;;;;8290951;28;20458;-41
2022/05/30 07:20:03;;;;;;;3.60;2.20;;;21.10;37.30;;;;;;8291956;28;20037;-41
2022/05/30 07:24:05;;;;;;;4.43;2.85;;;21.10;37.30;;;;;;8290751;28;20513;-41
2022/05/30 07:28:05;;;;;;;;;;;21.10;37.30;;;;;;8291824;28;20041;-41
2022/05/30 07:32:06;;;;;;;2.60;1.80;;;21.10;37.30;;;;;;8291482;28;19936;-40
2022/05/30 07:36:10;;;;;;;2.70;1.65;;;21.10;37.30;;;;;;8290533;28;20511;-41
2022/05/30 07:40:12;;;;;;;2.55;1.80;;;21.10;37.50;;;;;;8291650;28;20057;-41
2022/05/30 07:44:12;;;;;;;;;;;21.10;37.40;;;;;;8292074;28;20037;-40
2022/05/30 07:48:13;;;;;;;2.57;1.47;;;21.10;37.30;;;;;;8289685;28;20282;-40
2022/05/30 07:52:14;;;;;;;2.55;1.75;;;21.10;37.40;;;;;;8285169;28;20499;-41
2022/05/30 07:56:17;;;;;;;2.28;1.88;;;21.10;37.30;;;;;;8261241;28;20431;-40
2022/05/30 08:00:27;;;;;;;2.17;1.45;;;21.10;37.30;;;;;;8290597;28;20386;-40
2022/05/30 08:04:28;;;;;;;2.53;2.10;;;21.10;37.30;;;;;;8291016;28;20117;-41
2022/05/30 08:08:28;;;;;;;2.47;1.40;;;21.10;37.30;;;;;;8290805;28;20038;-41
2022/05/30 08:12:29;;;;;;;2.17;1.47;;;21.10;37.30;;;;;;8290173;28;20045;-40
2022/05/30 08:16:29;;;;;;;2.43;1.53;;;21.10;37.30;;;;;;8290525;28;20038;-40
2022/05/30 08:20:31;;;;;;;1.80;1.30;;;21.10;37.30;;;;;;8291030;28;20042;-41
2022/05/30 08:24:40;;;;;;;2.08;1.30;;;21.20;37.30;;;;;;8289717;28;20435;-40
2022/05/30 08:28:41;;;;;;;2.17;1.50;;;21.20;37.30;;;;;;8290855;28;20054;-39
2022/05/30 08:32:43;;;;;;;2.40;1.60;;;21.20;37.30;;;;;;8291712;28;20041;-41
2022/05/30 08:36:44;;;;;;;2.88;1.60;;;21.20;37.30;;;;;;8295944;28;20395;-40
2022/05/30 08:45:09;;;;;;;2.78;1.58;;;21.20;37.30;;;;;;8295773;28;20072;-40
2022/05/30 08:49:25;;;;;;;1.65;1.30;;;21.20;37.30;;;;;;8295323;28;20058;-41
2022/05/30 08:53:35;;;;;;;2.05;1.30;;;21.20;37.20;;;;;;8277618;28;20054;-39
2022/05/30 08:58:07;;;;;;;2.22;1.40;;;21.20;37.30;;;;;;8272548;28;20034;-40
2022/05/30 09:02:13;;;;;;;;;;;21.20;37.30;;;;;;8296161;28;20394;-40
2022/05/30 09:06:27;;;;;;;2.83;1.73;;;21.20;37.20;;;;;;8295318;28;19924;-40
2022/05/30 09:10:37;;;;;;;1.90;1.40;;;21.20;37.20;;;;;;8295901;28;20037;-39
2022/05/30 09:15:06;;;;;;;2.13;1.50;;;21.30;37.30;;;;;;8295236;28;20101;-39
2022/05/30 09:19:09;;;;;;;1.27;1.17;;;21.30;37.20;;;;;;8271407;28;20075;-40
2022/05/30 09:23:12;;;;;;;2.10;1.38;;;21.30;37.30;;;;;;8294963;28;20103;-40
2022/05/30 09:27:12;;;;;;;1.95;1.35;;;21.30;37.20;;;;;;8294576;28;20358;-41
2022/05/30 09:31:41;;;;;;;2.57;1.37;;;21.30;37.20;;;;;;8295057;28;20030;-41
2022/05/30 09:35:42;;;;;;;3.05;1.30;;;21.40;37.30;;;;;;8294207;28;20111;-41
2022/05/30 09:39:46;;;;;;;2.45;1.40;;;21.40;37.20;;;;;;8289645;28;20030;-40
2022/05/30 09:44:03;;;;;;;1.90;1.38;;;21.30;37.20;;;;;;8293982;28;20129;-40
2022/05/30 09:48:10;;;;;;;2.35;1.50;;;21.40;37.20;;;;;;8294393;28;20156;-40
2022/05/30 09:52:22;;;;;;;2.00;1.52;;;21.40;37.20;;;;;;8293877;28;20033;-40
2022/05/30 09:56:23;;;;;;;2.38;1.50;;;21.40;37.20;;;;;;8294447;28;20049;-40
2022/05/30 10:00:30;;;;;;;2.90;1.63;;;21.40;37.10;;;;;;8293406;28;20141;-40
2022/05/30 10:04:43;;;;;;;1.92;1.30;;;21.40;37.10;;;;;;8293696;28;20049;-40
2022/05/30 10:08:46;;;;;;;1.25;1.13;;;21.50;37.10;;;;;;8293836;28;20033;-40
2022/05/30 10:13:38;;;;;;;2.15;1.23;;;21.50;37.10;;;;;;8293067;28;20034;-40
2022/05/30 10:17:39;;;;;;;1.52;1.08;;;21.50;37.10;;;;;;8226005;28;20108;-40
2022/05/30 10:31:21;;;;;;;1.52;1.40;;;21.60;37.20;;;;;;8292864;28;20329;-40
2022/05/30 10:35:23;;;;;;;1.60;1.38;;;21.60;37.10;;;;;;8292991;28;20050;-40
2022/05/30 10:39:47;;;;;;;1.33;1.20;;;21.60;37.00;;;;;;8292336;28;20050;-40
2022/05/30 10:43:56;;;;;;;1.63;1.27;;;21.60;37.00;;;;;;8293031;28;20435;-40
2022/05/30 10:47:58;;;;;;;2.13;1.30;;;21.60;37.00;;;;;;8292934;28;20415;-40
2022/05/30 10:52:17;;;;;;;;;;;21.60;36.90;;;;;;8292539;28;20037;-40
2022/05/30 10:56:30;;;;;;;1.73;1.20;;;21.60;36.90;;;;;;8291226;28;19929;-41
2022/05/30 11:00:42;;;;;;;1.83;1.33;;;21.60;36.90;;;;;;8291684;28;20121;-40
2022/05/30 11:04:52;;;;;;;1.77;1.50;;;21.70;36.90;;;;;;8292070;28;20061;-40
2022/05/30 11:09:07;;;;;;;1.40;1.10;;;21.70;37.00;;;;;;8292052;28;20507;-41
2022/05/30 11:13:28;;;;;;;2.15;1.30;;;21.70;36.90;;;;;;8292131;28;20049;-41
2022/05/30 11:17:38;;;;;;;1.88;1.58;;;21.80;37.00;;;;;;8292078;28;20038;-41
2022/05/30 11:21:46;;;;;;;1.63;1.10;;;21.80;36.90;;;;;;8291098;28;20124;-40
2022/05/30 11:26:02;;;;;;;1.30;1.10;;;21.80;36.90;;;;;;8291861;28;20038;-40
2022/05/30 11:30:11;;;;;;;1.45;1.20;;;21.80;37.00;;;;;;8291790;28;20088;-40
2022/05/30 11:34:18;;;;;;;1.98;1.50;;;21.90;37.00;;;;;;8291250;28;20129;-40
2022/05/30 11:38:43;;;;;;;1.70;1.15;;;21.90;36.90;;;;;;8291212;28;20116;-41
2022/05/30 11:43:15;;;;;;;1.55;1.10;;;21.90;36.80;;;;;;8291336;28;20044;-39
2022/05/30 11:47:39;;;;;;;2.10;1.45;;;21.90;36.80;;;;;;8291327;28;20111;-40
2022/05/30 11:52:12;;;;;;;2.42;1.33;;;22.00;36.80;;;;;;8290728;28;20069;-40
2022/05/30 11:56:20;;;;;;;2.42;1.23;;;22.00;36.80;;;;;;8291010;28;20137;-39
2022/05/30 12:00:37;;;;;;;2.05;1.30;;;22.00;36.60;;;;;;8290681;28;20038;-39
2022/05/30 12:05:06;;;;;;;2.50;1.25;;;22.00;36.70;;;;;;8290731;28;20119;-40
2022/05/30 12:09:35;;;;;;;1.83;1.15;;;22.00;36.60;;;;;;8293923;28;20061;-40
2022/05/30 12:14:13;;;;;;;1.35;1.02;;;22.10;36.70;;;;;;8297606;28;20423;-40
2022/05/30 12:27:30;;;;;;;1.60;1.20;;;22.10;36.60;;;;;;8296754;28;20069;-40
2022/05/30 12:31:36;;;;;;;1.92;1.10;;;22.10;36.60;;;;;;8297096;28;20507;-40
2022/05/30 12:35:36;;;;;;;1.60;0.93;;;22.20;36.60;;;;;;8296513;28;20085;-40
2022/05/30 12:39:38;;;;;;;2.03;1.40;;;22.20;36.60;;;;;;8295910;28;20687;-40
2022/05/30 12:43:43;;;;;;;1.48;1.25;;;22.20;36.60;;;;;;8296125;28;20034;-40
2022/05/30 12:47:54;;;;;;;1.92;1.50;;;22.20;36.60;;;;;;8296954;28;20099;-40
2022/05/30 12:52:14;;;;;;;2.13;1.60;;;22.20;36.60;;;;;;8295525;28;20030;-41
2022/05/30 12:56:38;;;;;;;2.20;1.60;;;22.30;36.60;;;;;;8291631;28;20057;-41
2022/05/30 13:00:42;;;;;;;3.10;1.88;;;22.30;36.60;;;;;;8285751;28;20127;-41
2022/05/30 13:04:51;;;;;;;2.72;1.70;;;22.30;36.60;;;;;;8295764;28;20062;-40
2022/05/30 13:08:59;;;;;;;2.00;1.55;;;22.30;36.50;;;;;;8295854;28;20499;-40
2022/05/30 13:13:14;;;;;;;2.28;1.58;;;22.30;36.50;;;;;;8294725;28;20049;-39
2022/05/30 13:17:23;;;;;;;3.85;2.38;;;22.30;36.50;;;;;;8295402;28;20121;-40
2022/05/30 13:21:27;;;;;;;3.08;1.98;;;22.40;36.50;;;;;;8293723;28;20038;-40
2022/05/30 13:25:33;;;;;;;2.60;1.55;;;22.40;36.50;;;;;;8295569;28;20034;-39
2022/05/30 13:29:41;;;;;;;3.40;2.10;;;22.40;36.50;;;;;;8295008;28;20092;-40
2022/05/30 13:33:50;;;;;;;2.85;2.08;;;22.40;36.50;;;;;;8294453;28;20407;-40
2022/05/30 13:37:57;;;;;;;2.47;1.85;;;22.40;36.40;;;;;;8294924;28;20046;-40
2022/05/30 13:41:58;;;;;;;3.60;2.30;;;22.50;36.60;;;;;;8294868;28;20044;-40
2022/05/30 13:45:59;;;;;;;3.57;2.10;;;22.50;36.50;;;;;;8293815;28;20042;-40
2022/05/30 13:50:00;;;;;;;3.28;1.90;;;22.50;36.50;;;;;;8294687;28;20108;-41
2022/05/30 13:54:01;;;;;;;3.00;1.77;;;22.50;36.40;;;;;;8294171;28;20128;-41
2022/05/30 13:58:04;;;;;;;3.58;1.85;;;22.50;36.50;;;;;;8294031;28;20040;-40
2022/05/30 14:02:09;;;;;;;3.17;1.92;;;22.50;36.30;;;;;;8294203;28;20487;-40
2022/05/30 14:06:33;;;;;;;3.17;1.90;;;22.50;36.30;;;;;;8293365;28;20141;-41
2022/05/30 14:10:39;;;;;;;2.78;2.00;;;22.50;36.30;;;;;;8294097;28;20045;-40
2022/05/30 14:14:43;;;;;;;2.63;2.08;;;22.60;36.30;;;;;;8293846;28;20133;-40
2022/05/30 14:18:56;;;;;;;2.92;1.70;;;22.60;36.40;;;;;;8293175;28;20037;-40
2022/05/30 14:23:07;;;;;;;4.28;2.10;;;22.60;36.30;;;;;;8294014;28;20034;-40
2022/05/30 14:27:18;;;;;;;2.55;1.60;;;22.60;36.10;;;;;;8292962;28;20030;-40
2022/05/30 14:31:20;;;;;;;2.55;1.80;;;22.60;36.20;;;;;;8293153;28;20083;-40
2022/05/30 14:35:27;;;;;;;3.70;1.90;;;22.60;36.10;;;;;;8293082;28;20057;-40
2022/05/30 14:39:30;;;;;;;2.67;1.90;;;22.60;36.20;;;;;;8292669;28;20531;-40
2022/05/30 14:43:44;;;;;;;3.45;2.30;;;22.60;36.10;;;;;;8292922;28;20065;-40
2022/05/30 14:47:49;;;;;;;2.72;1.70;;;22.60;36.20;;;;;;8292700;28;20125;-41
2022/05/30 14:52:01;;;;;;;3.03;1.70;;;22.60;36.20;;;;;;8291859;28;20113;-40
2022/05/30 14:56:06;;;;;;;3.08;2.05;;;22.60;36.20;;;;;;8292423;28;20500;-41
2022/05/30 15:00:37;;;;;;;2.55;1.70;;;22.60;36.20;;;;;;8291954;28;20381;-41
2022/05/30 15:04:39;;;;;;;2.50;1.90;;;22.60;36.30;;;;;;8292304;28;20057;-41
2022/05/30 15:08:40;;;;;;;2.90;2.00;;;22.60;36.10;;;;;;8292190;28;20041;-41
2022/05/30 15:12:42;;;;;;;;;;;22.60;36.10;;;;;;8291936;28;20038;-41
2022/05/30 15:16:42;;;;;;;2.70;1.60;;;22.60;36.20;;;;;;8292009;28;20024;-40
2022/05/30 15:20:44;;;;;;;2.33;1.80;;;22.70;36.10;;;;;;8292245;28;20041;-42
2022/05/30 15:24:53;;;;;;;2.65;2.10;;;22.70;36.00;;;;;;8291685;28;20113;-40
2022/05/30 15:28:53;;;;;;;1.88;1.60;;;22.70;36.10;;;;;;8291979;28;20041;-40
2022/05/30 15:32:54;;;;;;;2.15;1.50;;;22.70;36.00;;;;;;8291557;28;20046;-40
2022/05/30 15:36:55;;;;;;;2.80;1.77;;;22.80;36.00;;;;;;8290695;28;20032;-40
2022/05/30 15:40:56;;;;;;;3.08;1.45;;;22.80;36.10;;;;;;8291427;28;20038;-40
2022/05/30 15:44:56;;;;;;;2.57;1.90;;;22.80;36.00;;;;;;8290683;28;20128;-40
2022/05/30 15:48:57;;;;;;;2.72;1.75;;;22.80;36.00;;;;;;8291349;28;20554;-40
2022/05/30 15:57:27;;;;;;;2.88;1.50;;;22.90;36.00;;;;;;8290522;28;20045;-39
2022/05/30 16:01:28;;;;;;;2.42;1.42;;;22.90;35.90;;;;;;8290989;28;20113;-39
2022/05/30 16:05:29;;;;;;;2.90;1.92;;;22.90;35.90;;;;;;8290957;28;20068;-39
2022/05/30 16:09:35;;;;;;;2.38;2.10;;;22.90;35.90;;;;;;8290693;28;20041;-40
2022/05/30 16:13:37;;;;;;;4.13;1.73;;;22.80;35.90;;;;;;8291304;28;20050;-40
2022/05/30 16:17:38;;;;;;;3.58;1.60;;;22.80;35.90;;;;;;8290931;28;20073;-40
2022/05/30 16:21:41;;;;;;;2.60;1.70;;;22.80;35.90;;;;;;8290115;28;20058;-40
2022/05/30 16:25:42;;;;;;;2.47;1.88;;;22.80;36.00;;;;;;8290342;28;20030;-40
2022/05/30 16:29:42;;;;;;;2.03;1.40;;;22.90;36.00;;;;;;8290167;28;20045;-40
2022/05/30 16:33:44;;;;;;;2.30;1.50;;;22.80;36.00;;;;;;8289972;28;20049;-40
2022/05/30 16:37:47;;;;;;;1.77;1.50;;;22.80;36.00;;;;;;8290159;28;20065;-40
2022/05/30 16:41:48;;;;;;;2.88;1.45;;;22.80;35.90;;;;;;8290083;28;20041;-40
2022/05/30 16:45:49;;;;;;;1.70;1.52;;;22.80;36.00;;;;;;8288884;28;20077;-41
2022/05/30 16:49:50;;;;;;;1.87;1.40;;;22.80;36.00;;;;;;8290098;28;20041;-40
2022/05/30 16:53:52;;;;;;;3.22;1.67;;;22.80;36.00;;;;;;8291351;28;20305;-41
2022/05/30 16:57:52;;;;;;;1.50;1.40;;;22.80;35.90;;;;;;8294975;28;20510;-41
2022/05/30 17:01:53;;;;;;;2.93;1.70;;;22.80;36.00;;;;;;8295805;28;20053;-40
2022/05/30 17:05:55;;;;;;;;;;;22.80;36.00;;;;;;8296200;28;20395;-40
2022/05/30 17:09:58;;;;;;;2.50;1.80;;;22.80;36.10;;;;;;8293999;28;20366;-40
2022/05/30 17:13:59;;;;;;;1.95;1.40;;;22.70;36.10;;;;;;8295553;28;20499;-40
2022/05/30 17:18:00;;;;;;;2.00;1.57;;;22.80;36.10;;;;;;8295132;28;20117;-40
2022/05/30 17:22:01;;;;;;;2.63;1.60;;;22.80;36.10;;;;;;8294435;28;20034;-40
2022/05/30 17:26:01;;;;;;;3.30;1.60;;;22.70;36.10;;;;;;8295162;28;20506;-40
2022/05/30 17:30:03;;;;;;;2.23;1.53;;;22.70;36.10;;;;;;8295689;28;20288;-40
2022/05/30 17:34:05;;;;;;;1.95;1.42;;;22.70;36.10;;;;;;8294394;28;20050;-41
2022/05/30 17:38:06;;;;;;;1.70;1.33;;;22.70;36.10;;;;;;8294735;28;20069;-40
2022/05/30 17:42:07;;;;;;;1.77;1.38;;;22.70;36.20;;;;;;8294571;28;20068;-41
2022/05/30 17:46:21;;;;;;;1.40;1.30;;;22.70;36.70;;;;;;8294495;28;20038;-40
2022/05/30 17:50:28;;;;;;;2.45;1.40;;;22.70;36.20;;;;;;8294235;28;20049;-40
2022/05/30 17:54:29;;;;;;;2.72;1.60;;;22.70;36.20;;;;;;8293842;28;20076;-41
2022/05/30 17:58:30;;;;;;;5.63;1.83;;;22.70;36.20;;;;;;8294238;28;20559;-40
2022/05/30 18:02:30;;;;;;;2.38;1.88;;;22.70;36.30;;;;;;8293682;28;20076;-40
2022/05/30 18:07:02;;;;;;;2.30;1.85;;;22.60;36.10;;;;;;8292714;28;20495;-40
2022/05/30 18:11:11;;;;;;;1.88;1.60;;;22.70;36.20;;;;;;8293820;28;20029;-41
2022/05/30 18:15:27;;;;;;;2.80;1.60;;;22.70;36.20;;;;;;8293391;28;20042;-40
2022/05/30 18:19:40;;;;;;;2.70;1.98;;;22.70;36.20;;;;;;8294139;28;20053;-40
2022/05/30 18:24:08;;;;;;;2.67;1.88;;;22.60;36.10;;;;;;8293443;28;20072;-40
2022/05/30 18:28:13;;;;;;;2.10;1.80;;;22.60;36.20;;;;;;8293065;28;20060;-39
2022/05/30 18:32:43;;;;;;;1.98;1.40;;;22.60;36.20;;;;;;8293277;28;20052;-39
2022/05/30 18:37:13;;;;;;;3.17;1.70;;;22.60;36.20;;;;;;8292398;28;20465;-39
2022/05/30 18:41:22;;;;;;;2.05;1.40;;;22.60;36.20;;;;;;8287114;28;20113;-39
2022/05/30 18:50:43;;;;;;;1.85;1.60;;;22.60;36.50;;;;;;8342349;28;20399;-40
2022/05/30 18:54:44;;;;;;;2.13;1.52;;;22.60;36.20;;;;;;8349417;28;20037;-40
2022/05/30 18:58:57;;;;;;;1.95;1.38;;;22.60;36.20;;;;;;8352512;28;20474;-39
2022/05/30 19:03:12;;;;;;;1.65;1.40;;;22.50;36.30;;;;;;8352347;28;20082;-39
2022/05/30 19:07:13;;;;;;;1.75;1.38;;;22.50;36.30;;;;;;8351817;28;20417;-39
2022/05/30 19:11:20;;;;;;;3.50;1.52;;;22.50;36.30;;;;;;8351712;28;20144;-39
2022/05/30 19:20:00;;;;;;;1.67;1.55;;;22.50;36.30;;;;;;8352434;28;20044;-41
2022/05/30 19:24:01;;;;;;;2.25;1.52;;;22.50;36.30;;;;;;8351639;28;20458;-41
2022/05/30 19:28:08;;;;;;;1.83;1.73;;;22.50;36.30;;;;;;8351162;28;20053;-40
2022/05/30 19:32:13;;;;;;;2.05;1.50;;;22.50;36.30;;;;;;8351476;28;20037;-40
2022/05/30 19:36:13;;;;;;;2.30;1.30;;;22.40;36.30;;;;;;8351071;28;20037;-40
2022/05/30 19:40:14;;;;;;;2.57;1.87;;;22.50;36.30;;;;;;8351922;28;20113;-40
2022/05/30 19:44:18;;;;;;;1.60;1.40;;;22.40;36.30;;;;;;8351433;28;20049;-40
2022/05/30 19:48:19;;;;;;;1.95;1.70;;;22.50;36.40;;;;;;8350453;28;20580;-40
2022/05/30 19:52:24;;;;;;;2.22;1.60;;;22.40;36.30;;;;;;8350588;28;20041;-40
2022/05/30 19:56:28;;;;;;;2.50;1.55;;;22.40;36.30;;;;;;8350822;28;20059;-40
2022/05/30 20:00:29;;;;;;;2.80;1.92;;;22.40;36.40;;;;;;8336735;28;20045;-40
2022/05/30 20:04:30;;;;;;;;;;;22.40;36.30;;;;;;8328817;28;20461;-41
2022/05/30 20:08:30;;;;;;;3.40;1.47;;;22.40;36.30;;;;;;8328419;28;19921;-41
2022/05/30 20:12:31;;;;;;;1.93;1.67;;;22.40;36.40;;;;;;8327927;28;20037;-41
2022/05/30 20:16:38;;;;;;;1.50;1.40;;;22.40;36.40;;;;;;8327838;28;20398;-41
2022/05/30 20:20:39;;;;;;;1.80;1.55;;;22.40;36.40;;;;;;8328148;28;20083;-41
2022/05/30 20:24:41;;;;;;;2.30;1.50;;;22.30;36.40;;;;;;8327613;28;20399;-39
2022/05/30 20:28:42;;;;;;;1.60;1.45;;;22.30;36.50;;;;;;8327903;28;20045;-39
2022/05/30 20:32:43;;;;;;;;;;;22.30;36.50;;;;;;8327849;28;20041;-39
2022/05/30 20:36:43;;;;;;;2.50;1.57;;;22.30;36.50;;;;;;8327088;28;19913;-39
2022/05/30 20:45:05;;;;;;;1.60;1.50;;;22.30;36.60;;;;;;8327254;28;20307;-39
2022/05/30 20:49:06;;;;;;;2.03;1.42;;;22.30;36.60;;;;;;8326626;28;20045;-39
2022/05/30 20:53:07;;;;;;;1.98;1.73;;;22.20;36.50;;;;;;8327197;28;20352;-40
2022/05/30 20:57:09;;;;;;;2.70;1.42;;;22.20;36.60;;;;;;8326638;28;20056;-40
2022/05/30 21:01:10;;;;;;;2.17;1.48;;;22.20;36.60;;;;;;8326855;28;20037;-40
2022/05/30 21:05:12;;;;;;;2.45;1.45;;;22.20;36.60;;;;;;8326968;28;20029;-40
2022/05/30 21:09:13;;;;;;;1.60;1.48;;;22.20;36.60;;;;;;8325895;28;20347;-40
2022/05/30 21:13:13;;;;;;;1.70;1.40;;;22.20;36.60;;;;;;8325507;28;20490;-39
2022/05/30 21:17:42;;;;;;;2.13;1.75;;;22.20;36.60;;;;;;8326227;28;20029;-40
2022/05/30 21:21:47;;;;;;;3.08;1.75;;;22.20;36.60;;;;;;8325591;28;20495;-40
2022/05/30 21:25:49;;;;;;;1.85;1.65;;;22.20;36.70;;;;;;8326570;28;20033;-40
2022/05/30 21:29:50;;;;;;;2.47;1.48;;;22.10;36.60;;;;;;8325772;28;20161;-40
2022/05/30 21:33:59;;;;;;;2.70;1.23;;;22.10;36.60;;;;;;8325264;28;20037;-40
2022/05/30 21:38:00;;;;;;;2.30;1.55;;;22.10;36.60;;;;;;8325433;28;20038;-40
2022/05/30 21:42:01;;;;;;;1.50;1.38;;;22.10;36.60;;;;;;8325663;28;20060;-41
2022/05/30 21:46:02;;;;;;;3.58;1.63;;;22.10;36.60;;;;;;8325137;28;20042;-40
2022/05/30 21:50:05;;;;;;;1.80;1.38;;;22.10;36.60;;;;;;8325435;28;20042;-39
2022/05/30 21:54:06;;;;;;;1.50;1.35;;;22.10;36.60;;;;;;8324706;28;20140;-40
2022/05/30 21:58:07;;;;;;;;;;;22.00;36.60;;;;;;8325746;28;20038;-40
2022/05/30 22:02:13;;;;;;;2.30;1.80;;;22.10;36.60;;;;;;8325157;28;19913;-40
2022/05/30 22:06:13;;;;;;;2.65;1.60;;;22.00;36.70;;;;;;8323198;28;20041;-40
2022/05/30 22:10:16;;;;;;;2.13;1.60;;;22.10;36.70;;;;;;8325034;28;20052;-40
2022/05/30 22:14:16;;;;;;;1.83;1.30;;;22.00;36.70;;;;;;8325254;28;20048;-40